createdAt,value
2017-10-01T00:01:29.751Z,16.13
2017-10-01T00:03:57.364Z,19.17
2017-10-01T00:06:25.683Z,19.73
2017-10-01T00:08:53.478Z,16.07
2017-10-01T00:11:21.039Z,15.80
2017-10-01T00:13:48.823Z,14.03
2017-10-01T00:16:17.168Z,18.53
2017-10-01T00:18:44.729Z,13.20
2017-10-01T00:21:12.325Z,18.20
2017-10-01T00:23:39.876Z,13.40
2017-10-01T00:26:08.518Z,25.67
2017-10-01T00:28:36.266Z,19.80
2017-10-01T00:31:03.813Z,18.50
2017-10-01T00:33:31.429Z,14.47
2017-10-01T00:35:59.772Z,11.50
2017-10-01T00:38:27.660Z,25.03
2017-10-01T00:40:55.223Z,20.93
2017-10-01T00:43:22.783Z,18.73
2017-10-01T00:45:50.355Z,12.30
2017-10-01T00:48:17.910Z,14.77
2017-10-01T00:50:45.519Z,12.10
2017-10-01T00:53:13.071Z,18.00
2017-10-01T00:55:40.620Z,13.03
2017-10-01T00:58:08.211Z,15.90
2017-10-01T01:00:35.775Z,15.43
2017-10-01T01:03:03.398Z,20.80
2017-10-01T01:05:30.939Z,14.73
2017-10-01T01:07:59.272Z,16.77
2017-10-01T01:10:26.865Z,15.07
2017-10-01T01:12:54.425Z,14.57
2017-10-01T01:15:22.571Z,14.00
2017-10-01T01:17:50.119Z,16.93
2017-10-01T01:20:17.675Z,13.53
2017-10-01T01:22:45.249Z,11.93
2017-10-01T01:25:12.796Z,14.37
2017-10-01T01:27:40.892Z,15.03
2017-10-01T01:30:08.598Z,15.67
2017-10-01T01:32:36.906Z,19.23
2017-10-01T01:35:04.683Z,13.03
2017-10-01T01:37:32.238Z,15.93
2017-10-01T01:39:59.851Z,20.90
2017-10-01T01:42:28.162Z,18.30
2017-10-01T01:44:55.720Z,12.00
2017-10-01T01:47:23.458Z,18.93
2017-10-01T01:49:51.767Z,16.97
2017-10-01T01:52:19.759Z,21.63
2017-10-01T01:54:47.315Z,19.23
2017-10-01T01:57:14.872Z,15.77
2017-10-01T01:59:42.464Z,18.27
2017-10-01T02:02:10.016Z,18.53
2017-10-01T02:04:37.671Z,24.00
2017-10-01T02:07:05.227Z,18.23
2017-10-01T02:09:32.771Z,13.73
2017-10-01T02:12:00.359Z,19.97
2017-10-01T02:14:27.908Z,16.97
2017-10-01T02:16:55.603Z,14.37
2017-10-01T02:19:23.916Z,13.60
2017-10-01T02:21:51.482Z,18.50
2017-10-01T02:24:19.066Z,17.63
2017-10-01T02:26:46.651Z,15.20
2017-10-01T02:29:15.018Z,22.83
2017-10-01T02:31:42.576Z,16.20
2017-10-01T02:34:10.138Z,13.93
2017-10-01T02:36:37.718Z,15.60
2017-10-01T02:39:06.031Z,25.63
2017-10-01T02:41:33.646Z,20.07
2017-10-01T02:44:01.963Z,15.40
2017-10-01T02:46:29.503Z,17.80
2017-10-01T02:48:57.415Z,17.20
2017-10-01T02:51:24.955Z,15.03
2017-10-01T02:53:52.551Z,17.27
2017-10-01T02:56:20.108Z,18.10
2017-10-01T02:58:47.655Z,14.00
2017-10-01T03:01:15.266Z,16.97
2017-10-01T03:03:42.823Z,15.33
2017-10-01T03:06:11.195Z,17.20
2017-10-01T03:08:38.751Z,11.70
2017-10-01T03:11:07.090Z,18.47
2017-10-01T03:13:34.690Z,16.03
2017-10-01T03:16:03.064Z,15.30
2017-10-01T03:18:30.680Z,17.40
2017-10-01T03:20:58.222Z,17.00
2017-10-01T03:23:25.783Z,17.07
2017-10-01T03:25:53.367Z,12.10
2017-10-01T03:28:20.915Z,13.83
2017-10-01T03:30:48.902Z,13.43
2017-10-01T03:33:16.453Z,14.70
2017-10-01T03:35:44.006Z,17.83
2017-10-01T03:38:11.629Z,14.80
2017-10-01T03:40:39.180Z,18.90
2017-10-01T03:43:07.562Z,19.83
2017-10-01T03:45:35.119Z,16.80
2017-10-01T03:48:03.439Z,19.13
2017-10-01T03:50:31.032Z,15.00
2017-10-01T03:52:58.592Z,13.37
2017-10-01T03:55:26.538Z,14.93
2017-10-01T03:57:54.111Z,13.20
2017-10-01T04:00:21.670Z,16.47
2017-10-01T04:02:49.274Z,29.33
2017-10-01T04:05:16.811Z,16.97
2017-10-01T04:07:45.456Z,18.00
2017-10-01T04:10:13.010Z,14.17
2017-10-01T04:12:40.586Z,15.50
2017-10-01T04:15:08.185Z,16.40
2017-10-01T04:17:35.744Z,13.37
2017-10-01T04:20:04.132Z,18.83
2017-10-01T04:22:31.679Z,27.10
2017-10-01T04:25:00.019Z,17.67
2017-10-01T04:27:27.616Z,20.07
2017-10-01T04:29:55.951Z,15.70
2017-10-01T04:32:23.559Z,17.30
2017-10-01T04:34:51.918Z,17.20
2017-10-01T04:37:19.523Z,19.10
2017-10-01T04:39:47.111Z,13.10
2017-10-01T04:42:14.670Z,22.23
2017-10-01T04:44:42.311Z,16.30
2017-10-01T04:47:09.851Z,14.33
2017-10-01T04:49:37.395Z,12.30
2017-10-01T04:52:05.755Z,18.43
2017-10-01T04:54:33.327Z,11.67
2017-10-01T04:57:02.188Z,19.30
2017-10-01T04:59:29.750Z,15.97
2017-10-01T05:01:57.354Z,13.70
2017-10-01T05:04:24.937Z,15.63
2017-10-01T05:06:52.491Z,23.20
2017-10-01T05:09:20.479Z,17.70
2017-10-01T05:11:48.063Z,14.90
2017-10-01T05:14:15.616Z,17.77
2017-10-01T05:16:43.206Z,23.03
2017-10-01T05:19:10.966Z,19.27
2017-10-01T05:21:39.610Z,19.20
2017-10-01T05:24:07.186Z,16.43
2017-10-01T05:26:34.734Z,14.40
2017-10-01T05:29:02.327Z,16.20
2017-10-01T05:31:29.921Z,18.00
2017-10-01T05:33:57.614Z,22.73
2017-10-01T05:36:25.180Z,13.53
2017-10-01T05:38:52.724Z,23.13
2017-10-01T05:41:20.323Z,18.67
2017-10-01T05:43:48.645Z,19.80
2017-10-01T05:46:16.247Z,15.20
2017-10-01T05:48:43.799Z,18.90
2017-10-01T05:51:11.410Z,17.70
2017-10-01T05:53:38.967Z,15.50
2017-10-01T05:56:06.527Z,25.03
2017-10-01T05:58:34.106Z,20.93
2017-10-01T06:01:01.666Z,20.43
2017-10-01T06:03:29.661Z,24.00
2017-10-01T06:05:57.228Z,19.20
2017-10-01T06:08:24.800Z,28.00
2017-10-01T06:10:52.397Z,22.17
2017-10-01T06:13:19.946Z,18.30
2017-10-01T06:15:48.321Z,25.83
2017-10-01T06:18:15.871Z,26.47
2017-10-01T06:20:44.215Z,21.47
2017-10-01T06:23:11.821Z,32.87
2017-10-01T06:25:39.386Z,22.47
2017-10-01T06:28:06.995Z,28.60
2017-10-01T06:30:34.516Z,27.33
2017-10-01T06:33:02.063Z,28.57
2017-10-01T06:35:29.652Z,22.97
2017-10-01T06:37:57.213Z,24.00
2017-10-01T06:40:25.199Z,22.07
2017-10-01T06:42:52.752Z,34.03
2017-10-01T06:45:20.309Z,23.23
2017-10-01T06:47:47.908Z,28.27
2017-10-01T06:50:15.467Z,26.63
2017-10-01T06:52:44.123Z,30.53
2017-10-01T06:55:11.679Z,28.60
2017-10-01T06:57:39.232Z,23.90
2017-10-01T07:00:06.830Z,25.17
2017-10-01T07:02:34.382Z,45.80
2017-10-01T07:05:02.662Z,35.93
2017-10-01T07:07:30.249Z,24.57
2017-10-01T07:09:57.814Z,14.63
2017-10-01T07:12:25.414Z,14.87
2017-10-01T07:14:52.998Z,10.93
2017-10-01T07:17:20.859Z,13.50
2017-10-01T07:19:48.380Z,8.50
2017-10-01T07:22:15.946Z,7.43
2017-10-01T07:24:43.726Z,9.13
2017-10-01T07:27:11.287Z,7.60
2017-10-01T07:29:38.920Z,6.90
2017-10-01T07:32:06.448Z,19.03
2017-10-01T07:34:33.999Z,5.60
2017-10-01T07:37:02.434Z,22.97
2017-10-01T07:39:29.985Z,15.17
2017-10-01T07:41:57.972Z,27.60
2017-10-01T07:44:25.527Z,6.20
2017-10-01T07:46:53.064Z,5.43
2017-10-01T07:49:20.740Z,13.37
2017-10-01T07:51:48.286Z,4.73
2017-10-01T07:54:15.888Z,4.93
2017-10-01T07:56:43.433Z,3.97
2017-10-01T07:59:10.991Z,9.83
2017-10-01T08:01:38.927Z,3.10
2017-10-01T08:04:06.477Z,3.80
2017-10-01T08:06:34.082Z,3.13
2017-10-01T08:09:01.652Z,3.80
2017-10-01T08:11:29.343Z,2.60
2017-10-01T08:13:57.702Z,5.00
2017-10-01T08:16:25.269Z,4.90
2017-10-01T08:18:53.076Z,4.03
2017-10-01T08:21:20.635Z,4.07
2017-10-01T08:23:48.192Z,2.83
2017-10-01T08:26:15.779Z,4.13
2017-10-01T08:28:43.722Z,2.97
2017-10-01T08:31:11.335Z,3.10
2017-10-01T08:33:39.664Z,4.17
2017-10-01T08:36:07.741Z,3.33
2017-10-01T08:38:35.314Z,3.03
2017-10-01T08:41:02.861Z,4.03
2017-10-01T08:43:30.749Z,3.60
2017-10-01T08:45:58.293Z,4.63
2017-10-01T08:48:25.852Z,8.00
2017-10-01T08:50:53.443Z,2.23
2017-10-01T08:53:20.993Z,3.00
2017-10-01T08:55:48.592Z,2.70
2017-10-01T08:58:16.123Z,2.40
2017-10-01T09:00:43.675Z,2.77
2017-10-01T09:03:11.273Z,5.23
2017-10-01T09:05:38.826Z,12.93
2017-10-01T09:08:06.427Z,5.90
2017-10-01T09:10:33.978Z,22.67
2017-10-01T09:13:01.529Z,4.67
2017-10-01T09:15:29.116Z,1.67
2017-10-01T09:17:56.675Z,2.10
2017-10-01T09:20:24.654Z,3.77
2017-10-01T09:22:52.200Z,23.27
2017-10-01T09:25:19.761Z,7.70
2017-10-01T09:27:47.347Z,2.70
2017-10-01T09:30:14.900Z,7.67
2017-10-01T09:32:42.494Z,4.93
2017-10-01T09:35:10.035Z,5.53
2017-10-01T09:37:38.530Z,1.77
2017-10-01T09:40:06.883Z,3.63
2017-10-01T09:42:35.255Z,2.90
2017-10-01T09:45:02.882Z,2.87
2017-10-01T09:47:30.412Z,2.27
2017-10-01T09:49:57.966Z,3.17
2017-10-01T09:52:25.547Z,1.97
2017-10-01T09:54:53.099Z,4.80
2017-10-01T09:57:21.008Z,2.20
2017-10-01T09:59:48.572Z,1.90
2017-10-01T10:02:16.135Z,1.80
2017-10-01T10:04:44.503Z,1.63
2017-10-01T10:07:12.055Z,2.30
2017-10-01T10:09:39.675Z,1.47
2017-10-01T10:12:07.223Z,2.00
2017-10-01T10:14:35.705Z,1.13
2017-10-01T10:17:04.114Z,1.40
2017-10-01T10:19:31.659Z,2.03
2017-10-01T10:21:59.276Z,1.60
2017-10-01T10:24:26.823Z,1.87
2017-10-01T10:26:54.375Z,1.77
2017-10-01T10:29:21.951Z,2.03
2017-10-01T10:31:49.510Z,1.90
2017-10-01T10:34:17.114Z,6.40
2017-10-01T10:36:44.673Z,1.97
2017-10-01T10:39:12.223Z,1.57
2017-10-01T10:41:39.803Z,2.87
2017-10-01T10:44:07.346Z,2.57
2017-10-01T10:46:34.958Z,1.77
2017-10-01T10:49:02.510Z,2.30
2017-10-01T10:51:30.076Z,1.70
2017-10-01T10:53:57.652Z,2.30
2017-10-01T10:56:25.347Z,2.97
2017-10-01T10:58:52.946Z,2.60
2017-10-01T11:01:20.500Z,1.60
2017-10-01T11:03:48.046Z,1.77
2017-10-01T11:06:15.711Z,2.07
2017-10-01T11:08:43.270Z,1.57
2017-10-01T11:11:10.874Z,1.30
2017-10-01T11:13:38.427Z,3.20
2017-10-01T11:16:05.969Z,9.00
2017-10-01T11:18:33.579Z,1.77
2017-10-01T11:21:01.148Z,2.67
2017-10-01T11:23:28.730Z,3.40
2017-10-01T11:25:56.266Z,3.20
2017-10-01T11:28:23.807Z,1.67
2017-10-01T11:30:51.390Z,2.10
2017-10-01T11:33:18.951Z,1.77
2017-10-01T11:35:46.860Z,5.27
2017-10-01T11:38:14.404Z,2.73
2017-10-01T11:40:41.954Z,2.70
2017-10-01T11:43:09.528Z,3.60
2017-10-01T11:45:37.091Z,3.53
2017-10-01T11:48:04.709Z,3.33
2017-10-01T11:50:32.289Z,3.93
2017-10-01T11:52:59.847Z,2.03
2017-10-01T11:55:27.458Z,3.00
2017-10-01T11:57:55.026Z,2.03
2017-10-01T12:00:23.403Z,2.03
2017-10-01T12:02:50.975Z,2.93
2017-10-01T12:05:19.293Z,2.83
2017-10-01T12:07:46.896Z,3.00
2017-10-01T12:10:15.230Z,2.67
2017-10-01T12:12:42.825Z,2.73
2017-10-01T12:15:10.389Z,2.80
2017-10-01T12:17:37.931Z,2.60
2017-10-01T12:20:05.564Z,3.60
2017-10-01T12:22:33.107Z,2.33
2017-10-01T12:25:00.746Z,2.90
2017-10-01T12:27:29.074Z,2.63
2017-10-01T12:29:56.636Z,2.80
2017-10-01T12:32:24.225Z,2.10
2017-10-01T12:34:53.279Z,2.80
2017-10-01T12:37:21.263Z,2.03
2017-10-01T12:39:48.971Z,2.50
2017-10-01T12:42:17.294Z,2.60
2017-10-01T12:44:44.871Z,5.10
2017-10-01T12:47:12.426Z,3.30
2017-10-01T12:49:40.101Z,3.20
2017-10-01T12:52:07.668Z,11.17
2017-10-01T12:54:35.296Z,2.80
2017-10-01T12:57:02.957Z,7.10
2017-10-01T12:59:30.509Z,2.63
2017-10-01T13:02:03.749Z,2.37
2017-10-01T13:04:31.299Z,3.00
2017-10-01T13:06:58.926Z,2.27
2017-10-01T13:09:26.492Z,1.97
2017-10-01T13:11:54.015Z,2.33
2017-10-01T13:14:21.638Z,2.57
2017-10-01T13:16:50.702Z,2.37
2017-10-01T13:19:18.554Z,1.97
2017-10-01T13:21:46.082Z,2.30
2017-10-01T13:24:13.630Z,2.67
2017-10-01T13:26:42.073Z,1.67
2017-10-01T13:29:10.453Z,1.80
2017-10-01T13:31:38.441Z,2.20
2017-10-01T13:34:06.006Z,4.53
2017-10-01T13:36:35.108Z,1.90
2017-10-01T13:39:03.460Z,2.47
2017-10-01T13:41:31.035Z,1.60
2017-10-01T13:43:58.650Z,3.70
2017-10-01T13:46:26.192Z,1.70
2017-10-01T13:48:53.735Z,2.27
2017-10-01T13:51:22.092Z,2.40
2017-10-01T13:53:49.862Z,2.50
2017-10-01T13:56:18.263Z,1.57
2017-10-01T13:58:45.804Z,3.23
2017-10-01T14:01:13.378Z,8.73
2017-10-01T14:03:40.983Z,2.80
2017-10-01T14:06:12.352Z,1.53
2017-10-01T14:08:39.960Z,2.00
2017-10-01T14:11:08.272Z,2.80
2017-10-01T14:13:35.904Z,3.50
2017-10-01T14:16:04.304Z,4.60
2017-10-01T14:18:32.600Z,4.57
2017-10-01T14:21:00.180Z,3.50
2017-10-01T14:23:27.749Z,2.60
2017-10-01T14:25:56.119Z,2.17
2017-10-01T14:28:23.692Z,3.67
2017-10-01T14:30:57.596Z,2.23
2017-10-01T14:33:25.142Z,3.73
2017-10-01T14:35:52.691Z,2.60
2017-10-01T14:38:20.271Z,2.40
2017-10-01T14:40:47.827Z,6.00
2017-10-01T14:43:15.424Z,2.57
2017-10-01T14:45:42.962Z,2.40
2017-10-01T14:48:10.622Z,2.23
2017-10-01T14:50:38.224Z,2.70
2017-10-01T14:53:05.812Z,2.00
2017-10-01T14:55:34.246Z,2.47
2017-10-01T14:58:01.794Z,2.87
2017-10-01T15:00:30.151Z,3.13
2017-10-01T15:02:57.747Z,3.70
2017-10-01T15:05:25.391Z,3.63
2017-10-01T15:07:53.764Z,3.33
2017-10-01T15:10:21.306Z,2.53
2017-10-01T15:12:48.858Z,2.40
2017-10-01T15:15:16.448Z,2.60
2017-10-01T15:17:44.752Z,2.80
2017-10-01T15:20:12.358Z,3.07
2017-10-01T15:22:39.913Z,9.07
2017-10-01T15:25:08.965Z,3.40
2017-10-01T15:27:36.600Z,3.20
2017-10-01T15:30:04.911Z,3.53
2017-10-01T15:32:32.510Z,2.30
2017-10-01T15:35:00.072Z,4.20
2017-10-01T15:37:27.656Z,3.80
2017-10-01T15:39:56.008Z,5.57
2017-10-01T15:42:23.555Z,2.53
2017-10-01T15:44:51.158Z,4.73
2017-10-01T15:47:18.723Z,3.63
2017-10-01T15:49:46.292Z,4.40
2017-10-01T15:52:13.871Z,5.40
2017-10-01T15:54:41.416Z,2.63
2017-10-01T15:57:09.107Z,2.67
2017-10-01T15:59:36.657Z,2.57
2017-10-01T16:02:04.472Z,2.00
2017-10-01T16:04:32.810Z,3.70
2017-10-01T16:07:00.363Z,3.10
2017-10-01T16:09:27.979Z,2.50
2017-10-01T16:11:55.539Z,2.60
2017-10-01T16:14:23.857Z,3.10
2017-10-01T16:16:51.434Z,4.20
2017-10-01T16:19:18.990Z,2.23
2017-10-01T16:21:46.586Z,12.80
2017-10-01T16:24:14.895Z,3.10
2017-10-01T16:26:42.467Z,3.50
2017-10-01T16:29:10.059Z,6.37
2017-10-01T16:31:37.608Z,6.50
2017-10-01T16:34:05.210Z,4.57
2017-10-01T16:36:32.754Z,7.37
2017-10-01T16:39:01.087Z,8.23
2017-10-01T16:41:28.690Z,5.07
2017-10-01T16:43:57.041Z,5.60
2017-10-01T16:46:24.643Z,5.10
2017-10-01T16:48:53.053Z,5.27
2017-10-01T16:51:20.714Z,4.50
2017-10-01T16:53:48.291Z,4.63
2017-10-01T16:56:15.855Z,3.63
2017-10-01T16:58:43.508Z,5.40
2017-10-01T17:01:11.102Z,6.40
2017-10-01T17:03:38.662Z,4.93
2017-10-01T17:06:06.562Z,4.70
2017-10-01T17:08:34.887Z,4.30
2017-10-01T17:11:02.742Z,5.87
2017-10-01T17:13:30.305Z,4.67
2017-10-01T17:15:57.895Z,4.57
2017-10-01T17:18:25.519Z,4.57
2017-10-01T17:20:53.147Z,5.67
2017-10-01T17:23:20.783Z,5.47
2017-10-01T17:25:49.103Z,7.87
2017-10-01T17:28:16.680Z,6.30
2017-10-01T17:30:44.268Z,5.13
2017-10-01T17:33:13.314Z,6.17
2017-10-01T17:35:40.899Z,7.83
2017-10-01T17:38:08.467Z,6.00
2017-10-01T17:40:36.028Z,15.47
2017-10-01T17:43:03.653Z,25.33
2017-10-01T17:45:31.216Z,12.80
2017-10-01T17:47:58.835Z,7.10
2017-10-01T17:50:26.429Z,5.50
2017-10-01T17:52:53.983Z,8.47
2017-10-01T17:55:21.592Z,9.93
2017-10-01T17:57:49.146Z,13.47
2017-10-01T18:00:16.763Z,14.60
2017-10-01T18:02:44.335Z,11.67
2017-10-01T18:05:11.907Z,11.00
2017-10-01T18:07:39.507Z,6.10
2017-10-01T18:10:07.861Z,10.50
2017-10-01T18:12:35.489Z,12.90
2017-10-01T18:15:03.040Z,11.63
2017-10-01T18:17:30.613Z,9.07
2017-10-01T18:19:58.316Z,13.07
2017-10-01T18:22:25.890Z,12.07
2017-10-01T18:24:54.383Z,14.30
2017-10-01T18:27:22.710Z,13.63
2017-10-01T18:29:50.276Z,13.80
2017-10-01T18:32:17.875Z,11.57
2017-10-01T18:34:45.433Z,11.83
2017-10-01T18:37:13.858Z,8.70
2017-10-01T18:39:41.414Z,10.80
2017-10-01T18:42:08.959Z,9.73
2017-10-01T18:44:36.619Z,15.90
2017-10-01T18:47:04.202Z,7.40
2017-10-01T18:49:32.100Z,8.10
2017-10-01T18:51:59.661Z,7.73
2017-10-01T18:54:27.213Z,7.80
2017-10-01T18:56:54.945Z,10.73
2017-10-01T18:59:23.526Z,10.83
2017-10-01T19:01:51.706Z,9.73
2017-10-01T19:04:19.267Z,10.50
2017-10-01T19:06:46.811Z,9.80
2017-10-01T19:09:15.302Z,14.80
2017-10-01T19:11:42.893Z,8.10
2017-10-01T19:14:10.501Z,9.07
2017-10-01T19:16:38.180Z,15.47
2017-10-01T19:19:05.725Z,66.13
2017-10-01T19:21:33.431Z,73.37
2017-10-01T19:24:00.995Z,45.20
2017-10-01T19:26:28.900Z,41.17
2017-10-01T19:28:56.488Z,30.87
2017-10-01T19:31:24.157Z,25.43
2017-10-01T19:33:51.750Z,25.87
2017-10-01T19:36:19.343Z,23.23
2017-10-01T19:38:46.979Z,22.20
2017-10-01T19:41:14.547Z,17.70
2017-10-01T19:43:42.106Z,13.00
2017-10-01T19:46:09.686Z,13.03
2017-10-01T19:48:38.005Z,9.33
2017-10-01T19:51:05.639Z,9.57
2017-10-01T19:53:33.214Z,9.27
2017-10-01T19:56:00.782Z,9.20
2017-10-01T19:58:28.427Z,12.60
2017-10-01T20:00:55.992Z,10.27
2017-10-01T20:03:23.590Z,11.80
2017-10-01T20:05:51.189Z,14.80
2017-10-01T20:08:19.542Z,13.70
2017-10-01T20:10:47.483Z,10.63
2017-10-01T20:13:15.059Z,24.33
2017-10-01T20:15:44.174Z,13.10
2017-10-01T20:18:11.743Z,12.43
2017-10-01T20:20:40.248Z,10.70
2017-10-01T20:23:07.837Z,10.33
2017-10-01T20:25:35.388Z,9.57
2017-10-01T20:28:03.386Z,12.10
2017-10-01T20:30:30.951Z,12.97
2017-10-01T20:32:58.560Z,15.70
2017-10-01T20:35:26.178Z,12.90
2017-10-01T20:37:53.726Z,14.40
2017-10-01T20:40:21.344Z,16.60
2017-10-01T20:42:48.907Z,20.57
2017-10-01T20:45:16.534Z,14.53
2017-10-01T20:47:44.120Z,13.87
2017-10-01T20:50:11.739Z,14.90
2017-10-01T20:52:40.610Z,15.13
2017-10-01T20:55:08.172Z,16.20
2017-10-01T20:57:35.747Z,23.57
2017-10-01T21:00:03.329Z,16.67
2017-10-01T21:02:30.931Z,15.90
2017-10-01T21:04:58.539Z,19.37
2017-10-01T21:07:26.918Z,16.87
2017-10-01T21:09:54.551Z,17.60
2017-10-01T21:12:22.171Z,18.50
2017-10-01T21:14:49.752Z,16.73
2017-10-01T21:17:17.367Z,18.17
2017-10-01T21:19:44.927Z,19.30
2017-10-01T21:22:13.254Z,15.50
2017-10-01T21:24:40.844Z,17.57
2017-10-01T21:27:08.438Z,15.30
2017-10-01T21:29:36.375Z,15.40
2017-10-01T21:32:03.988Z,15.90
2017-10-01T21:34:31.814Z,19.03
2017-10-01T21:36:59.419Z,18.13
2017-10-01T21:39:26.983Z,15.13
2017-10-01T21:41:54.609Z,16.97
2017-10-01T21:44:22.210Z,18.53
2017-10-01T21:46:49.796Z,20.50
2017-10-01T21:49:17.394Z,13.53
2017-10-01T21:51:44.951Z,16.40
2017-10-01T21:54:13.322Z,13.17
2017-10-01T21:56:40.883Z,20.00
2017-10-01T21:59:09.210Z,15.37
2017-10-01T22:01:36.815Z,16.30
2017-10-01T22:04:05.138Z,20.13
2017-10-01T22:06:32.743Z,20.23
2017-10-01T22:09:00.299Z,19.23
2017-10-01T22:11:28.623Z,22.87
2017-10-01T22:13:56.296Z,20.33
2017-10-01T22:16:23.868Z,20.80
2017-10-01T22:18:51.479Z,20.70
2017-10-01T22:21:19.798Z,19.40
2017-10-01T22:23:47.362Z,21.53
2017-10-01T22:26:14.949Z,20.23
2017-10-01T22:28:42.511Z,22.80
2017-10-01T22:31:10.150Z,24.63
2017-10-01T22:33:37.711Z,22.40
2017-10-01T22:36:05.276Z,23.90
2017-10-01T22:38:32.868Z,35.10
2017-10-01T22:41:00.428Z,33.37
2017-10-01T22:43:29.079Z,34.50
2017-10-01T22:45:56.812Z,34.17
2017-10-01T22:48:24.359Z,39.63
2017-10-01T22:50:51.949Z,35.87
2017-10-01T22:53:19.498Z,38.77
2017-10-01T22:55:47.599Z,32.20
2017-10-01T22:58:15.170Z,40.53
2017-10-01T23:00:45.934Z,44.90
2017-10-01T23:03:13.548Z,39.57
2017-10-01T23:05:41.134Z,38.90
2017-10-01T23:08:09.008Z,41.33
2017-10-01T23:10:36.766Z,32.80
2017-10-01T23:13:04.395Z,42.67
2017-10-01T23:15:32.107Z,40.23
2017-10-01T23:17:59.690Z,44.40
2017-10-01T23:20:29.112Z,41.57
2017-10-01T23:22:56.719Z,49.23
2017-10-01T23:25:24.311Z,39.93
2017-10-01T23:27:51.912Z,39.20
2017-10-01T23:30:19.688Z,38.63
2017-10-01T23:32:47.582Z,35.63
2017-10-01T23:35:15.134Z,42.73
2017-10-01T23:37:42.704Z,44.33
2017-10-01T23:40:10.319Z,44.17
2017-10-01T23:42:37.921Z,39.77
2017-10-01T23:45:05.577Z,40.00
2017-10-01T23:47:33.150Z,40.87
2017-10-01T23:50:00.709Z,44.53
2017-10-01T23:52:30.280Z,39.73
2017-10-01T23:54:57.987Z,38.07
2017-10-01T23:57:26.390Z,39.00
2017-10-01T23:59:54.027Z,47.73
